Terminal Aerodrome Forecast
Issued by NWS Melbourne, FL

Home | Current Version | Previous Version | Text Only | Print | Product List | Glossary On
Versions: 1 2 3 4 5 6 7 8 9 10 11 12 13
000
FTUS42 KMLB 290500
TAFDAB
TAF
KDAB 290535Z 2906/3006 32003KT P6SM FEW045
     FM291500 04006KT P6SM SCT045 SCT250
     FM291900 09007KT P6SM SCT045
     FM300100 00000KT P6SM SCT250=

USA.gov is the U.S. government's official web portal to all federal, state and local government web resources and services.